createdAt,value
2023-09-07T00:01:40.287Z,9.73
2023-09-07T00:04:07.843Z,11.67
2023-09-07T00:06:35.849Z,11.07
2023-09-07T00:09:06.647Z,10.53
2023-09-07T00:11:35.033Z,10.70
2023-09-07T00:14:02.169Z,11.33
2023-09-07T00:16:29.479Z,11.00
2023-09-07T00:18:57.050Z,10.57
2023-09-07T00:21:24.350Z,11.07
2023-09-07T00:23:51.505Z,10.70
2023-09-07T00:26:20.082Z,10.20
2023-09-07T00:28:47.676Z,11.00
2023-09-07T00:31:15.299Z,10.60
2023-09-07T00:33:42.538Z,10.90
2023-09-07T00:36:09.712Z,10.83
2023-09-07T00:38:36.902Z,11.03
2023-09-07T00:41:04.120Z,11.23
2023-09-07T00:43:31.461Z,11.33
2023-09-07T00:45:58.790Z,10.43
2023-09-07T00:48:26.189Z,10.60
2023-09-07T00:50:53.429Z,11.07
2023-09-07T00:53:20.841Z,12.13
2023-09-07T00:55:48.094Z,11.50
2023-09-07T00:58:15.667Z,11.67
2023-09-07T01:00:43.810Z,12.03
2023-09-07T01:03:11.310Z,10.53
2023-09-07T01:05:45.395Z,11.77
2023-09-07T01:08:16.947Z,11.50
2023-09-07T01:10:44.205Z,11.47
2023-09-07T01:13:11.546Z,12.63
2023-09-07T01:15:39.698Z,11.37
2023-09-07T01:18:23.519Z,11.57
2023-09-07T01:20:51.977Z,11.87
2023-09-07T01:23:19.308Z,13.43
2023-09-07T01:25:47.478Z,11.07
2023-09-07T01:28:16.404Z,12.17
2023-09-07T01:30:43.887Z,13.77
2023-09-07T01:33:11.602Z,11.97
2023-09-07T01:35:40.118Z,11.80
2023-09-07T01:38:07.582Z,11.97
2023-09-07T01:40:35.090Z,11.60
2023-09-07T01:43:02.255Z,10.90
2023-09-07T01:45:29.450Z,12.00
2023-09-07T01:47:56.713Z,12.83
2023-09-07T01:50:26.058Z,12.50
2023-09-07T01:52:53.315Z,13.60
2023-09-07T01:55:20.693Z,13.47
2023-09-07T01:57:47.922Z,13.37
2023-09-07T02:00:15.238Z,11.60
2023-09-07T02:02:42.840Z,13.00
2023-09-07T02:05:10.873Z,13.47
2023-09-07T02:07:38.272Z,15.63
2023-09-07T02:10:05.580Z,15.13
2023-09-07T02:12:32.873Z,15.17
2023-09-07T02:15:01.574Z,14.40
2023-09-07T02:17:28.941Z,15.30
2023-09-07T02:19:56.361Z,16.13
2023-09-07T02:22:23.669Z,14.67
2023-09-07T02:24:51.179Z,14.50
2023-09-07T02:27:18.533Z,14.97
2023-09-07T02:29:45.806Z,15.20
2023-09-07T02:32:13.486Z,14.47
2023-09-07T02:34:40.876Z,14.87
2023-09-07T02:37:08.231Z,14.37
2023-09-07T02:39:35.410Z,13.10
2023-09-07T02:42:02.949Z,15.17
2023-09-07T02:44:30.337Z,13.03
2023-09-07T02:46:57.736Z,15.43
2023-09-07T02:49:25.049Z,13.13
2023-09-07T02:51:53.687Z,13.97
2023-09-07T02:54:21.054Z,13.17
2023-09-07T02:56:48.305Z,14.47
2023-09-07T02:59:15.731Z,15.50
2023-09-07T03:01:43.398Z,15.37
2023-09-07T03:04:10.699Z,15.00
2023-09-07T03:06:38.419Z,15.23
2023-09-07T03:09:10.092Z,15.20
2023-09-07T03:11:38.817Z,14.37
2023-09-07T03:14:06.491Z,15.13
2023-09-07T03:16:34.016Z,16.60
2023-09-07T03:19:01.738Z,15.00
2023-09-07T03:21:30.846Z,15.20
2023-09-07T03:23:59.122Z,13.17
2023-09-07T03:26:27.504Z,15.13
2023-09-07T03:28:54.772Z,15.90
2023-09-07T03:31:22.474Z,16.07
2023-09-07T03:33:50.959Z,14.77
2023-09-07T03:36:19.317Z,16.23
2023-09-07T03:38:46.707Z,14.93
2023-09-07T03:41:16.750Z,14.83
2023-09-07T03:43:44.037Z,15.53
2023-09-07T03:46:11.536Z,16.30
2023-09-07T03:48:41.428Z,15.07
2023-09-07T03:51:09.623Z,15.27
2023-09-07T03:53:36.999Z,17.17
2023-09-07T03:56:07.374Z,16.57
2023-09-07T03:58:34.861Z,16.23
2023-09-07T04:01:02.449Z,17.37
2023-09-07T04:03:31.094Z,17.80
2023-09-07T04:05:58.566Z,16.03
2023-09-07T04:08:25.809Z,16.10
2023-09-07T04:10:53.081Z,16.90
2023-09-07T04:13:20.254Z,16.90
2023-09-07T04:15:47.705Z,17.17
2023-09-07T04:18:17.965Z,16.77
2023-09-07T04:20:46.162Z,18.03
2023-09-07T04:23:14.698Z,18.77
2023-09-07T04:25:42.124Z,16.53
2023-09-07T04:28:10.051Z,16.80
2023-09-07T04:30:41.074Z,17.40
2023-09-07T04:33:08.797Z,17.00
2023-09-07T04:35:38.017Z,17.47
2023-09-07T04:38:05.728Z,19.17
2023-09-07T04:40:33.181Z,18.07
2023-09-07T04:43:01.068Z,17.30
2023-09-07T04:45:28.566Z,17.83
2023-09-07T04:47:56.105Z,17.43
2023-09-07T04:50:23.416Z,17.30
2023-09-07T04:52:50.931Z,17.63
2023-09-07T04:55:18.237Z,17.47
2023-09-07T04:57:45.702Z,17.67
2023-09-07T05:00:13.382Z,18.60
2023-09-07T05:02:46.457Z,16.53
2023-09-07T05:05:13.746Z,17.90
2023-09-07T05:07:40.943Z,17.53
2023-09-07T05:10:09.872Z,17.03
2023-09-07T05:12:37.161Z,16.20
2023-09-07T05:15:05.843Z,17.00
2023-09-07T05:17:33.092Z,15.33
2023-09-07T05:20:00.418Z,15.67
2023-09-07T05:22:27.693Z,16.70
2023-09-07T05:24:56.063Z,15.17
2023-09-07T05:27:23.262Z,16.90
2023-09-07T05:29:50.656Z,15.57
2023-09-07T05:32:17.962Z,16.43
2023-09-07T05:34:45.312Z,14.30
2023-09-07T05:37:12.607Z,16.07
2023-09-07T05:39:40.408Z,15.07
2023-09-07T05:42:07.710Z,14.90
2023-09-07T05:44:34.898Z,13.47
2023-09-07T05:47:03.706Z,15.07
2023-09-07T05:49:31.649Z,14.33
2023-09-07T05:51:59.128Z,13.53
2023-09-07T05:54:27.111Z,13.77
2023-09-07T05:56:54.636Z,12.90
2023-09-07T05:59:21.939Z,12.77
2023-09-07T06:01:49.235Z,12.97
2023-09-07T06:04:16.583Z,12.97
2023-09-07T06:06:44.053Z,13.33
2023-09-07T06:09:11.668Z,13.97
2023-09-07T06:11:39.130Z,13.33
2023-09-07T06:14:08.069Z,13.73
2023-09-07T06:16:36.286Z,12.60
2023-09-07T06:19:03.793Z,13.03
2023-09-07T06:21:31.196Z,13.50
2023-09-07T06:23:58.378Z,13.47
2023-09-07T06:26:26.438Z,11.97
2023-09-07T06:28:53.696Z,12.10
2023-09-07T06:31:21.249Z,12.87
2023-09-07T06:33:48.864Z,12.87
2023-09-07T06:36:16.213Z,12.40
2023-09-07T06:38:44.118Z,11.93
2023-09-07T06:41:11.449Z,12.93
2023-09-07T06:43:39.465Z,11.60
2023-09-07T06:46:09.228Z,11.90
2023-09-07T06:48:36.870Z,12.33
2023-09-07T06:51:05.569Z,11.70
2023-09-07T06:53:53.531Z,11.60
2023-09-07T06:56:22.073Z,11.20
2023-09-07T06:58:49.870Z,11.30
2023-09-07T07:01:17.387Z,11.83
2023-09-07T07:03:45.130Z,11.00
2023-09-07T07:06:12.698Z,11.33
2023-09-07T07:08:40.348Z,10.67
2023-09-07T07:11:07.808Z,10.53
2023-09-07T07:13:35.874Z,10.37
2023-09-07T07:16:12.348Z,10.30
2023-09-07T07:21:21.917Z,9.33
2023-09-07T07:23:49.319Z,9.73
2023-09-07T07:26:17.350Z,10.20
2023-09-07T07:31:30.616Z,10.47
2023-09-07T07:33:57.864Z,9.27
2023-09-07T07:36:25.156Z,9.00
2023-09-07T07:38:52.661Z,8.87
2023-09-07T07:41:20.229Z,9.30
2023-09-07T07:43:47.768Z,8.27
2023-09-07T07:46:18.149Z,8.97
2023-09-07T07:48:46.219Z,7.63
2023-09-07T07:51:13.573Z,8.50
2023-09-07T07:53:43.367Z,8.70
2023-09-07T07:56:16.530Z,7.95
2023-09-07T07:58:44.363Z,8.70
2023-09-07T08:01:19.773Z,7.73
2023-09-07T08:03:48.243Z,8.18
2023-09-07T08:06:16.056Z,7.70
2023-09-07T08:08:43.510Z,6.90
2023-09-07T08:11:11.664Z,8.18
2023-09-07T08:13:41.123Z,6.90
2023-09-07T08:16:14.551Z,7.03
2023-09-07T08:18:43.044Z,7.22
2023-09-07T08:21:11.690Z,6.25
2023-09-07T08:23:39.243Z,6.57
2023-09-07T08:26:07.403Z,6.43
2023-09-07T08:28:35.154Z,6.28
2023-09-07T08:31:05.384Z,6.07
2023-09-07T08:33:37.028Z,5.97
2023-09-07T08:36:06.564Z,6.10
2023-09-07T08:38:34.150Z,6.18
2023-09-07T08:41:06.603Z,6.47
2023-09-07T08:43:41.853Z,5.88
2023-09-07T08:46:15.862Z,6.18
2023-09-07T08:48:48.009Z,6.05
2023-09-07T08:51:16.950Z,7.25
2023-09-07T08:53:47.360Z,6.18
2023-09-07T08:56:16.139Z,6.50
2023-09-07T08:58:46.129Z,6.97
2023-09-07T09:01:14.540Z,6.72
2023-09-07T09:03:43.957Z,5.85
2023-09-07T09:06:12.628Z,5.93
2023-09-07T09:08:47.210Z,5.93
2023-09-07T09:11:14.670Z,6.03
2023-09-07T09:13:42.784Z,6.47
2023-09-07T09:16:10.807Z,5.85
2023-09-07T09:18:39.291Z,6.35
2023-09-07T09:21:06.963Z,5.93
2023-09-07T09:23:38.209Z,6.00
2023-09-07T09:26:06.473Z,5.90
2023-09-07T09:28:34.982Z,5.85
2023-09-07T09:31:03.705Z,5.75
2023-09-07T09:33:37.061Z,5.63
2023-09-07T09:36:05.228Z,6.03
2023-09-07T09:38:33.802Z,5.82
2023-09-07T09:41:01.560Z,5.65
2023-09-07T09:43:28.789Z,5.75
2023-09-07T09:45:56.748Z,5.30
2023-09-07T09:48:24.621Z,6.45
2023-09-07T09:50:52.465Z,5.38
2023-09-07T09:53:21.577Z,5.70
2023-09-07T09:55:49.809Z,5.80
2023-09-07T09:58:17.917Z,6.25
2023-09-07T10:00:46.154Z,5.13
2023-09-07T10:03:27.630Z,5.68
2023-09-07T10:05:54.943Z,5.72
2023-09-07T10:08:24.387Z,5.43
2023-09-07T10:10:54.749Z,4.80
2023-09-07T10:13:32.225Z,5.10
2023-09-07T10:16:05.907Z,5.55
2023-09-07T10:18:37.057Z,5.18
2023-09-07T10:21:04.863Z,5.50
2023-09-07T10:23:39.463Z,5.18
2023-09-07T10:26:07.691Z,5.22
2023-09-07T10:28:35.195Z,4.72
2023-09-07T10:31:08.692Z,4.72
2023-09-07T10:33:37.815Z,5.50
2023-09-07T10:36:06.001Z,5.78
2023-09-07T10:38:37.030Z,4.93
2023-09-07T10:41:05.537Z,5.65
2023-09-07T10:43:34.653Z,5.65
2023-09-07T10:46:02.932Z,5.18
2023-09-07T10:48:32.027Z,5.47
2023-09-07T10:50:59.537Z,5.20
2023-09-07T10:53:31.828Z,5.53
2023-09-07T10:56:00.677Z,5.25
2023-09-07T10:58:30.988Z,5.82
2023-09-07T11:00:59.366Z,5.95
2023-09-07T11:03:28.358Z,8.23
2023-09-07T11:05:57.540Z,6.82
2023-09-07T11:08:25.084Z,6.10
2023-09-07T11:10:53.263Z,6.07
2023-09-07T11:13:20.645Z,6.55
2023-09-07T11:15:48.096Z,6.28
2023-09-07T11:18:15.451Z,5.20
2023-09-07T11:20:43.853Z,9.40
2023-09-07T11:23:11.285Z,5.63
2023-09-07T11:25:39.228Z,6.15
2023-09-07T11:28:07.389Z,5.03
2023-09-07T11:30:35.686Z,5.05
2023-09-07T11:33:03.778Z,4.78
2023-09-07T11:35:31.234Z,4.55
2023-09-07T11:37:58.541Z,4.40
2023-09-07T11:40:27.023Z,4.53
2023-09-07T11:42:54.534Z,4.70
2023-09-07T11:45:22.005Z,4.53
2023-09-07T11:47:49.435Z,4.53
2023-09-07T11:50:19.008Z,4.30
2023-09-07T11:52:46.768Z,4.47
2023-09-07T11:55:16.099Z,4.15
2023-09-07T11:57:44.005Z,4.22
2023-09-07T12:00:12.055Z,4.43
2023-09-07T12:02:42.838Z,5.18
2023-09-07T12:05:10.581Z,4.38
2023-09-07T12:07:38.374Z,5.03
2023-09-07T12:10:06.166Z,4.85
2023-09-07T12:12:33.367Z,4.93
2023-09-07T12:15:01.467Z,5.15
2023-09-07T12:17:28.776Z,4.18
2023-09-07T12:19:56.063Z,4.90
2023-09-07T12:22:23.328Z,4.40
2023-09-07T12:25:02.279Z,4.35
2023-09-07T12:27:52.592Z,4.20
2023-09-07T12:30:22.048Z,4.63
2023-09-07T12:32:49.913Z,4.53
2023-09-07T12:35:17.481Z,5.22
2023-09-07T12:37:44.756Z,4.80
2023-09-07T12:40:13.107Z,4.82
2023-09-07T12:42:44.116Z,4.72
2023-09-07T12:45:12.315Z,4.50
2023-09-07T12:47:40.222Z,4.57
2023-09-07T12:50:07.993Z,4.57
2023-09-07T12:52:39.261Z,4.88
2023-09-07T12:55:07.449Z,4.82
2023-09-07T12:57:35.605Z,4.20
2023-09-07T13:00:03.026Z,4.70
2023-09-07T13:02:30.394Z,5.22
2023-09-07T13:04:57.819Z,4.25
2023-09-07T13:07:25.086Z,4.60
2023-09-07T13:09:52.346Z,4.70
2023-09-07T13:12:20.216Z,4.80
2023-09-07T13:14:48.515Z,4.40
2023-09-07T13:17:16.305Z,4.80
2023-09-07T13:19:43.771Z,4.50
2023-09-07T13:22:11.488Z,4.80
2023-09-07T13:24:38.826Z,5.22
2023-09-07T13:27:06.287Z,4.47
2023-09-07T13:29:33.947Z,4.93
2023-09-07T13:32:01.389Z,4.38
2023-09-07T13:34:28.698Z,4.55
2023-09-07T13:36:56.463Z,4.05
2023-09-07T13:39:24.038Z,4.40
2023-09-07T13:41:51.265Z,5.28
2023-09-07T13:44:18.665Z,4.75
2023-09-07T13:46:46.336Z,4.32
2023-09-07T13:49:13.910Z,5.70
2023-09-07T13:51:44.302Z,5.05
2023-09-07T13:54:12.111Z,5.03
2023-09-07T13:56:39.873Z,4.80
2023-09-07T13:59:07.191Z,4.65
2023-09-07T14:01:34.565Z,4.60
2023-09-07T14:04:01.840Z,5.28
2023-09-07T14:06:29.210Z,5.03
2023-09-07T14:08:56.571Z,4.53
2023-09-07T14:11:24.726Z,5.18
2023-09-07T14:13:56.034Z,5.32
2023-09-07T14:16:24.192Z,5.22
2023-09-07T14:18:51.657Z,5.32
2023-09-07T14:21:19.210Z,5.00
2023-09-07T14:23:46.997Z,5.28
2023-09-07T14:26:14.678Z,5.35
2023-09-07T14:28:41.926Z,5.50
2023-09-07T14:31:09.607Z,5.28
2023-09-07T14:33:42.699Z,6.72
2023-09-07T14:36:10.459Z,6.65
2023-09-07T14:38:42.856Z,5.18
2023-09-07T14:41:20.275Z,6.00
2023-09-07T14:43:48.448Z,6.22
2023-09-07T14:46:15.984Z,5.85
2023-09-07T14:48:43.917Z,5.55
2023-09-07T14:51:11.595Z,5.55
2023-09-07T14:53:39.629Z,6.20
2023-09-07T14:56:07.311Z,5.80
2023-09-07T14:58:35.113Z,6.05
2023-09-07T15:01:02.538Z,5.70
2023-09-07T15:03:29.652Z,6.05
2023-09-07T15:05:56.968Z,5.70
2023-09-07T15:08:24.265Z,5.72
2023-09-07T15:10:51.766Z,5.72
2023-09-07T15:13:20.425Z,5.80
2023-09-07T15:15:47.731Z,6.60
2023-09-07T15:18:15.063Z,5.50
2023-09-07T15:20:42.727Z,5.93
2023-09-07T15:23:09.983Z,6.68
2023-09-07T15:25:37.216Z,5.97
2023-09-07T15:28:06.963Z,6.22
2023-09-07T15:30:34.137Z,6.25
2023-09-07T15:33:01.371Z,6.63
2023-09-07T15:35:28.659Z,6.35
2023-09-07T15:37:55.865Z,5.78
2023-09-07T15:40:23.022Z,6.05
2023-09-07T15:42:50.407Z,6.07
2023-09-07T15:45:17.830Z,6.15
2023-09-07T15:47:45.263Z,5.35
2023-09-07T15:50:12.808Z,6.28
2023-09-07T15:52:47.581Z,5.68
2023-09-07T15:55:15.402Z,5.53
2023-09-07T15:57:42.924Z,6.28
2023-09-07T16:00:10.414Z,5.78
2023-09-07T16:02:40.872Z,5.60
2023-09-07T16:05:09.132Z,5.65
2023-09-07T16:07:36.410Z,6.10
2023-09-07T16:10:03.841Z,6.25
2023-09-07T16:12:30.944Z,6.38
2023-09-07T16:14:58.208Z,5.55
2023-09-07T16:17:25.363Z,5.72
2023-09-07T16:19:53.450Z,5.75
2023-09-07T16:22:20.762Z,5.95
2023-09-07T16:24:48.133Z,5.65
2023-09-07T16:27:15.256Z,6.40
2023-09-07T16:29:44.767Z,6.05
2023-09-07T16:32:13.824Z,6.30
2023-09-07T16:34:42.053Z,5.80
2023-09-07T16:37:09.499Z,5.28
2023-09-07T16:39:36.820Z,6.05
2023-09-07T16:42:04.242Z,6.10
2023-09-07T16:44:31.617Z,5.47
2023-09-07T16:46:58.878Z,5.97
2023-09-07T16:49:26.478Z,5.50
2023-09-07T16:51:53.711Z,5.65
2023-09-07T16:54:21.158Z,6.10
2023-09-07T16:56:48.422Z,5.57
2023-09-07T16:59:46.174Z,5.72
2023-09-07T17:02:03.756Z,6.43
2023-09-07T17:04:35.015Z,6.03
2023-09-07T17:07:08.690Z,7.03
2023-09-07T17:09:36.786Z,6.57
2023-09-07T17:12:05.006Z,6.18
2023-09-07T17:14:33.138Z,5.93
2023-09-07T17:17:00.560Z,5.72
2023-09-07T17:19:32.239Z,5.47
2023-09-07T17:21:59.452Z,5.40
2023-09-07T17:24:26.829Z,6.07
2023-09-07T17:26:54.088Z,5.55
2023-09-07T17:29:21.683Z,5.45
2023-09-07T17:31:49.019Z,5.88
2023-09-07T17:34:16.238Z,6.05
2023-09-07T17:36:43.458Z,5.25
2023-09-07T17:39:10.675Z,5.25
2023-09-07T17:41:39.263Z,5.15
2023-09-07T17:44:06.598Z,5.35
2023-09-07T17:46:33.868Z,5.68
2023-09-07T17:49:01.116Z,5.10
2023-09-07T17:51:28.400Z,5.75
2023-09-07T17:53:56.087Z,5.63
2023-09-07T17:56:23.303Z,5.82
2023-09-07T17:58:50.503Z,5.82
2023-09-07T18:01:19.087Z,5.60
2023-09-07T18:03:46.906Z,5.97
2023-09-07T18:06:15.695Z,6.03
2023-09-07T18:08:43.418Z,5.63
2023-09-07T18:11:10.908Z,5.53
2023-09-07T18:13:38.462Z,6.25
2023-09-07T18:16:06.139Z,5.95
2023-09-07T18:18:36.057Z,5.28
2023-09-07T18:21:07.999Z,5.53
2023-09-07T18:23:36.086Z,5.90
2023-09-07T18:26:03.503Z,6.13
2023-09-07T18:28:32.414Z,5.55
2023-09-07T18:31:00.362Z,6.00
2023-09-07T18:33:27.871Z,6.18
2023-09-07T18:36:08.406Z,5.93
2023-09-07T18:38:36.093Z,5.80
2023-09-07T18:41:04.318Z,5.72
2023-09-07T18:43:32.135Z,5.90
2023-09-07T18:46:05.239Z,6.57
2023-09-07T18:48:32.894Z,6.15
2023-09-07T18:51:04.516Z,5.50
2023-09-07T18:53:32.598Z,5.90
2023-09-07T18:56:03.487Z,6.03
2023-09-07T18:58:31.115Z,5.43
2023-09-07T19:00:59.153Z,6.53
2023-09-07T19:03:26.733Z,5.38
2023-09-07T19:05:54.361Z,6.05
2023-09-07T19:08:23.480Z,6.22
2023-09-07T19:10:51.538Z,5.93
2023-09-07T19:13:19.080Z,6.05
2023-09-07T19:15:46.481Z,5.50
2023-09-07T19:18:25.441Z,6.03
2023-09-07T19:20:54.467Z,5.78
2023-09-07T19:23:24.497Z,6.03
2023-09-07T19:25:53.322Z,5.20
2023-09-07T19:28:20.607Z,5.18
2023-09-07T19:30:47.874Z,5.50
2023-09-07T19:33:15.430Z,5.40
2023-09-07T19:35:42.752Z,5.60
2023-09-07T19:38:11.164Z,5.50
2023-09-07T19:40:38.894Z,6.47
2023-09-07T19:43:06.109Z,5.35
2023-09-07T19:45:34.235Z,6.25
2023-09-07T19:48:01.600Z,5.97
2023-09-07T19:50:28.891Z,5.28
2023-09-07T19:52:58.202Z,6.18
2023-09-07T19:55:25.628Z,5.70
2023-09-07T19:57:52.894Z,5.93
2023-09-07T20:00:20.238Z,5.75
2023-09-07T20:02:47.679Z,6.35
2023-09-07T20:05:17.186Z,6.28
2023-09-07T20:07:44.612Z,6.03
2023-09-07T20:10:11.962Z,6.00
2023-09-07T20:12:39.349Z,5.63
2023-09-07T20:15:07.391Z,6.43
2023-09-07T20:17:36.399Z,6.47
2023-09-07T20:20:06.537Z,6.20
2023-09-07T20:22:37.120Z,6.07
2023-09-07T20:25:04.843Z,6.18
2023-09-07T20:27:32.136Z,6.43
2023-09-07T20:29:59.375Z,6.25
2023-09-07T20:32:26.575Z,5.97
2023-09-07T20:34:54.413Z,6.45
2023-09-07T20:37:21.576Z,6.60
2023-09-07T20:39:48.781Z,6.53
2023-09-07T20:42:16.465Z,7.10
2023-09-07T20:44:43.734Z,6.38
2023-09-07T20:47:10.949Z,6.55
2023-09-07T20:49:38.584Z,6.63
2023-09-07T20:52:06.450Z,6.30
2023-09-07T20:54:33.743Z,7.00
2023-09-07T20:57:01.102Z,6.63
2023-09-07T20:59:31.196Z,5.97
2023-09-07T21:01:58.447Z,6.88
2023-09-07T21:04:25.767Z,6.47
2023-09-07T21:06:53.027Z,6.65
2023-09-07T21:09:20.222Z,6.63
2023-09-07T21:11:47.685Z,6.22
2023-09-07T21:14:15.207Z,6.20
2023-09-07T21:16:42.512Z,6.30
2023-09-07T21:19:09.779Z,6.60
2023-09-07T21:21:37.048Z,6.07
2023-09-07T21:24:04.406Z,7.57
2023-09-07T21:26:31.617Z,7.80
2023-09-07T21:28:58.788Z,7.00
2023-09-07T21:31:26.163Z,6.97
2023-09-07T21:33:53.357Z,7.20
2023-09-07T21:36:20.562Z,6.67
2023-09-07T21:38:47.920Z,7.10
2023-09-07T21:41:16.824Z,7.20
2023-09-07T21:43:44.230Z,7.67
2023-09-07T21:46:11.480Z,7.43
2023-09-07T21:48:39.022Z,7.37
2023-09-07T21:51:06.511Z,7.20
2023-09-07T21:53:33.741Z,7.70
2023-09-07T21:56:01.121Z,7.00
2023-09-07T21:58:28.330Z,7.83
2023-09-07T22:00:55.829Z,7.27
2023-09-07T22:03:23.079Z,7.47
2023-09-07T22:05:56.689Z,7.80
2023-09-07T22:08:24.030Z,7.43
2023-09-07T22:10:51.212Z,7.40
2023-09-07T22:13:18.397Z,7.27
2023-09-07T22:15:45.586Z,7.87
2023-09-07T22:18:12.939Z,7.90
2023-09-07T22:20:40.177Z,7.57
2023-09-07T22:23:08.258Z,8.03
2023-09-07T22:25:35.509Z,7.70
2023-09-07T22:28:03.483Z,8.50
2023-09-07T22:30:30.708Z,8.40
2023-09-07T22:32:58.265Z,8.50
2023-09-07T22:35:25.591Z,8.10
2023-09-07T22:37:52.807Z,8.23
2023-09-07T22:40:20.119Z,9.13
2023-09-07T22:42:47.633Z,8.03
2023-09-07T22:45:15.364Z,8.70
2023-09-07T22:47:42.635Z,8.80
2023-09-07T22:50:10.474Z,9.50
2023-09-07T22:52:37.643Z,9.43
2023-09-07T22:55:06.059Z,9.77
2023-09-07T22:57:33.716Z,9.00
2023-09-07T23:00:01.310Z,9.40
2023-09-07T23:02:28.844Z,8.90
2023-09-07T23:04:56.430Z,9.63
2023-09-07T23:07:23.539Z,10.07
2023-09-07T23:09:51.424Z,8.47
2023-09-07T23:12:18.684Z,8.87
2023-09-07T23:14:45.984Z,8.93
2023-09-07T23:17:13.130Z,9.63
2023-09-07T23:19:40.357Z,10.13
2023-09-07T23:22:07.570Z,9.33
2023-09-07T23:24:34.817Z,9.07
2023-09-07T23:27:02.276Z,9.73
2023-09-07T23:29:29.522Z,8.47
2023-09-07T23:31:56.700Z,9.53
2023-09-07T23:34:23.890Z,9.50
2023-09-07T23:36:51.335Z,9.47
2023-09-07T23:39:18.525Z,9.30
2023-09-07T23:41:45.963Z,9.37
2023-09-07T23:44:13.380Z,9.53
2023-09-07T23:46:40.681Z,9.70
2023-09-07T23:49:08.026Z,9.67
2023-09-07T23:51:35.437Z,9.20
2023-09-07T23:54:02.708Z,9.80
2023-09-07T23:56:30.193Z,8.90
2023-09-07T23:58:57.312Z,9.57
